sensor_id;sensor_type;location;lat;lon;timestamp;P1;durP1;ratioP1;P2;durP2;ratioP2
55300;SDS011;58302;51.446;-2.000;2023-02-13T00:01:21;20.38;;;10.73;;
55300;SDS011;58302;51.446;-2.000;2023-02-13T00:03:48;21.08;;;10.93;;
55300;SDS011;58302;51.446;-2.000;2023-02-13T00:06:14;20.27;;;10.75;;
55300;SDS011;58302;51.446;-2.000;2023-02-13T00:08:40;20.42;;;11.13;;
55300;SDS011;58302;51.446;-2.000;2023-02-13T00:11:06;19.98;;;11.85;;
55300;SDS011;58302;51.446;-2.000;2023-02-13T00:13:32;20.50;;;11.35;;
55300;SDS011;58302;51.446;-2.000;2023-02-13T00:16:00;17.40;;;10.27;;
55300;SDS011;58302;51.446;-2.000;2023-02-13T00:18:28;20.33;;;11.40;;
55300;SDS011;58302;51.446;-2.000;2023-02-13T00:21:01;24.65;;;11.82;;
55300;SDS011;58302;51.446;-2.000;2023-02-13T00:23:28;23.15;;;11.65;;
55300;SDS011;58302;51.446;-2.000;2023-02-13T00:25:56;16.65;;;10.52;;
55300;SDS011;58302;51.446;-2.000;2023-02-13T00:28:22;21.17;;;12.63;;
55300;SDS011;58302;51.446;-2.000;2023-02-13T00:30:48;21.08;;;12.02;;
55300;SDS011;58302;51.446;-2.000;2023-02-13T00:33:14;23.15;;;12.38;;
55300;SDS011;58302;51.446;-2.000;2023-02-13T00:35:40;22.30;;;12.35;;
55300;SDS011;58302;51.446;-2.000;2023-02-13T00:38:06;20.52;;;11.43;;
55300;SDS011;58302;51.446;-2.000;2023-02-13T00:40:32;23.55;;;13.05;;
55300;SDS011;58302;51.446;-2.000;2023-02-13T00:42:58;20.85;;;12.18;;
55300;SDS011;58302;51.446;-2.000;2023-02-13T00:45:24;21.80;;;11.35;;
55300;SDS011;58302;51.446;-2.000;2023-02-13T00:47:50;21.88;;;12.80;;
55300;SDS011;58302;51.446;-2.000;2023-02-13T00:50:16;18.77;;;10.60;;
55300;SDS011;58302;51.446;-2.000;2023-02-13T00:52:42;20.88;;;12.82;;
55300;SDS011;58302;51.446;-2.000;2023-02-13T00:55:08;26.63;;;13.88;;
55300;SDS011;58302;51.446;-2.000;2023-02-13T00:57:34;25.05;;;12.35;;
55300;SDS011;58302;51.446;-2.000;2023-02-13T01:00:00;20.92;;;11.80;;
55300;SDS011;58302;51.446;-2.000;2023-02-13T01:02:26;25.13;;;12.43;;
55300;SDS011;58302;51.446;-2.000;2023-02-13T01:04:52;22.35;;;12.32;;
55300;SDS011;58302;51.446;-2.000;2023-02-13T01:07:18;25.50;;;13.32;;
55300;SDS011;58302;51.446;-2.000;2023-02-13T01:09:44;23.95;;;12.00;;
55300;SDS011;58302;51.446;-2.000;2023-02-13T01:12:10;25.63;;;13.10;;
55300;SDS011;58302;51.446;-2.000;2023-02-13T01:14:36;26.67;;;14.75;;
55300;SDS011;58302;51.446;-2.000;2023-02-13T01:17:02;23.60;;;12.30;;
55300;SDS011;58302;51.446;-2.000;2023-02-13T01:19:28;28.55;;;15.27;;
55300;SDS011;58302;51.446;-2.000;2023-02-13T01:21:54;30.38;;;13.75;;
55300;SDS011;58302;51.446;-2.000;2023-02-13T01:24:20;27.58;;;16.02;;
55300;SDS011;58302;51.446;-2.000;2023-02-13T01:29:18;23.58;;;11.68;;
55300;SDS011;58302;51.446;-2.000;2023-02-13T01:31:44;31.27;;;15.73;;
55300;SDS011;58302;51.446;-2.000;2023-02-13T01:34:09;28.85;;;14.55;;
55300;SDS011;58302;51.446;-2.000;2023-02-13T01:36:35;17.63;;;9.10;;
55300;SDS011;58302;51.446;-2.000;2023-02-13T01:39:01;25.63;;;14.65;;
55300;SDS011;58302;51.446;-2.000;2023-02-13T01:41:28;26.13;;;14.18;;
55300;SDS011;58302;51.446;-2.000;2023-02-13T01:43:56;29.33;;;14.63;;
55300;SDS011;58302;51.446;-2.000;2023-02-13T01:46:36;28.52;;;15.73;;
55300;SDS011;58302;51.446;-2.000;2023-02-13T01:49:22;25.92;;;14.10;;
55300;SDS011;58302;51.446;-2.000;2023-02-13T01:51:51;28.52;;;14.88;;
55300;SDS011;58302;51.446;-2.000;2023-02-13T01:54:22;29.65;;;15.93;;
55300;SDS011;58302;51.446;-2.000;2023-02-13T01:57:06;27.23;;;16.80;;
55300;SDS011;58302;51.446;-2.000;2023-02-13T01:59:42;29.88;;;16.27;;
55300;SDS011;58302;51.446;-2.000;2023-02-13T02:02:21;32.60;;;15.38;;
55300;SDS011;58302;51.446;-2.000;2023-02-13T02:04:47;22.05;;;13.15;;
55300;SDS011;58302;51.446;-2.000;2023-02-13T02:07:16;26.75;;;13.93;;
55300;SDS011;58302;51.446;-2.000;2023-02-13T02:09:46;25.73;;;14.48;;
55300;SDS011;58302;51.446;-2.000;2023-02-13T02:12:21;25.98;;;13.40;;
55300;SDS011;58302;51.446;-2.000;2023-02-13T02:14:51;24.52;;;13.38;;
55300;SDS011;58302;51.446;-2.000;2023-02-13T02:17:18;26.42;;;15.88;;
55300;SDS011;58302;51.446;-2.000;2023-02-13T02:20:03;26.05;;;14.73;;
55300;SDS011;58302;51.446;-2.000;2023-02-13T02:33:53;26.55;;;14.15;;
55300;SDS011;58302;51.446;-2.000;2023-02-13T02:45:50;27.20;;;15.13;;
55300;SDS011;58302;51.446;-2.000;2023-02-13T02:51:23;27.67;;;14.60;;
55300;SDS011;58302;51.446;-2.000;2023-02-13T02:56:49;28.50;;;16.25;;
55300;SDS011;58302;51.446;-2.000;2023-02-13T02:59:19;30.10;;;16.27;;
55300;SDS011;58302;51.446;-2.000;2023-02-13T03:02:05;29.83;;;17.85;;
55300;SDS011;58302;51.446;-2.000;2023-02-13T03:04:53;28.95;;;18.00;;
55300;SDS011;58302;51.446;-2.000;2023-02-13T03:07:42;20.27;;;12.70;;
55300;SDS011;58302;51.446;-2.000;2023-02-13T03:10:10;21.00;;;12.88;;
55300;SDS011;58302;51.446;-2.000;2023-02-13T03:13:09;19.50;;;13.00;;
55300;SDS011;58302;51.446;-2.000;2023-02-13T03:15:50;20.58;;;13.20;;
55300;SDS011;58302;51.446;-2.000;2023-02-13T03:18:38;20.00;;;10.38;;
55300;SDS011;58302;51.446;-2.000;2023-02-13T03:24:43;28.30;;;14.98;;
55300;SDS011;58302;51.446;-2.000;2023-02-13T03:27:40;18.95;;;11.05;;
55300;SDS011;58302;51.446;-2.000;2023-02-13T03:38:33;24.73;;;11.18;;
55300;SDS011;58302;51.446;-2.000;2023-02-13T03:41:16;22.52;;;12.63;;
55300;SDS011;58302;51.446;-2.000;2023-02-13T03:43:57;22.23;;;11.60;;
55300;SDS011;58302;51.446;-2.000;2023-02-13T03:46:31;23.50;;;13.20;;
55300;SDS011;58302;51.446;-2.000;2023-02-13T03:49:02;24.95;;;13.02;;
55300;SDS011;58302;51.446;-2.000;2023-02-13T03:52:10;22.02;;;10.80;;
55300;SDS011;58302;51.446;-2.000;2023-02-13T03:54:51;21.25;;;12.23;;
55300;SDS011;58302;51.446;-2.000;2023-02-13T03:57:43;27.38;;;14.05;;
55300;SDS011;58302;51.446;-2.000;2023-02-13T04:00:39;23.33;;;13.35;;
55300;SDS011;58302;51.446;-2.000;2023-02-13T04:06:05;23.80;;;14.15;;
55300;SDS011;58302;51.446;-2.000;2023-02-13T04:08:38;23.83;;;13.57;;
55300;SDS011;58302;51.446;-2.000;2023-02-13T04:11:15;27.52;;;15.00;;
55300;SDS011;58302;51.446;-2.000;2023-02-13T04:13:55;19.95;;;12.75;;
55300;SDS011;58302;51.446;-2.000;2023-02-13T04:16:44;22.42;;;14.13;;
55300;SDS011;58302;51.446;-2.000;2023-02-13T04:19:14;25.95;;;13.13;;
55300;SDS011;58302;51.446;-2.000;2023-02-13T04:21:41;21.60;;;14.10;;
55300;SDS011;58302;51.446;-2.000;2023-02-13T04:24:07;22.35;;;12.60;;
55300;SDS011;58302;51.446;-2.000;2023-02-13T04:26:35;23.67;;;13.15;;
55300;SDS011;58302;51.446;-2.000;2023-02-13T04:29:04;16.30;;;11.48;;
55300;SDS011;58302;51.446;-2.000;2023-02-13T04:31:30;22.83;;;13.45;;
55300;SDS011;58302;51.446;-2.000;2023-02-13T04:33:56;24.50;;;12.90;;
55300;SDS011;58302;51.446;-2.000;2023-02-13T04:36:22;21.55;;;12.27;;
55300;SDS011;58302;51.446;-2.000;2023-02-13T04:38:48;22.67;;;14.25;;
55300;SDS011;58302;51.446;-2.000;2023-02-13T04:41:14;27.17;;;15.43;;
55300;SDS011;58302;51.446;-2.000;2023-02-13T04:43:41;27.58;;;14.73;;
55300;SDS011;58302;51.446;-2.000;2023-02-13T04:46:07;24.05;;;13.77;;
55300;SDS011;58302;51.446;-2.000;2023-02-13T04:48:33;30.73;;;16.67;;
55300;SDS011;58302;51.446;-2.000;2023-02-13T04:50:59;25.38;;;14.50;;
55300;SDS011;58302;51.446;-2.000;2023-02-13T04:53:25;28.00;;;16.15;;
55300;SDS011;58302;51.446;-2.000;2023-02-13T04:55:51;26.15;;;15.55;;
55300;SDS011;58302;51.446;-2.000;2023-02-13T04:58:17;27.30;;;16.23;;
55300;SDS011;58302;51.446;-2.000;2023-02-13T05:00:43;29.35;;;19.17;;
55300;SDS011;58302;51.446;-2.000;2023-02-13T05:03:10;31.60;;;17.67;;
55300;SDS011;58302;51.446;-2.000;2023-02-13T05:05:38;32.97;;;18.30;;
55300;SDS011;58302;51.446;-2.000;2023-02-13T05:08:05;30.90;;;17.52;;
55300;SDS011;58302;51.446;-2.000;2023-02-13T05:10:32;27.42;;;18.80;;
55300;SDS011;58302;51.446;-2.000;2023-02-13T05:12:59;31.80;;;16.67;;
55300;SDS011;58302;51.446;-2.000;2023-02-13T05:15:25;28.85;;;15.98;;
55300;SDS011;58302;51.446;-2.000;2023-02-13T05:17:51;29.13;;;17.25;;
55300;SDS011;58302;51.446;-2.000;2023-02-13T05:20:17;27.90;;;16.85;;
55300;SDS011;58302;51.446;-2.000;2023-02-13T05:22:44;30.33;;;17.85;;
55300;SDS011;58302;51.446;-2.000;2023-02-13T05:25:29;31.90;;;18.15;;
55300;SDS011;58302;51.446;-2.000;2023-02-13T05:27:56;26.02;;;17.05;;
55300;SDS011;58302;51.446;-2.000;2023-02-13T05:30:22;32.95;;;18.13;;
55300;SDS011;58302;51.446;-2.000;2023-02-13T05:32:48;35.00;;;19.33;;
55300;SDS011;58302;51.446;-2.000;2023-02-13T05:35:17;31.10;;;18.23;;
55300;SDS011;58302;51.446;-2.000;2023-02-13T05:37:43;32.42;;;18.33;;
55300;SDS011;58302;51.446;-2.000;2023-02-13T05:40:10;32.70;;;18.92;;
55300;SDS011;58302;51.446;-2.000;2023-02-13T05:42:38;30.15;;;18.10;;
55300;SDS011;58302;51.446;-2.000;2023-02-13T05:45:05;34.22;;;20.40;;
55300;SDS011;58302;51.446;-2.000;2023-02-13T05:47:31;35.15;;;19.92;;
55300;SDS011;58302;51.446;-2.000;2023-02-13T05:49:57;37.25;;;20.45;;
55300;SDS011;58302;51.446;-2.000;2023-02-13T05:52:23;32.72;;;19.10;;
55300;SDS011;58302;51.446;-2.000;2023-02-13T05:54:49;32.85;;;18.17;;
55300;SDS011;58302;51.446;-2.000;2023-02-13T05:57:15;31.95;;;19.58;;
55300;SDS011;58302;51.446;-2.000;2023-02-13T05:59:41;32.97;;;19.05;;
55300;SDS011;58302;51.446;-2.000;2023-02-13T06:02:07;35.85;;;19.63;;
55300;SDS011;58302;51.446;-2.000;2023-02-13T06:04:33;33.63;;;20.38;;
55300;SDS011;58302;51.446;-2.000;2023-02-13T06:06:59;39.08;;;20.50;;
55300;SDS011;58302;51.446;-2.000;2023-02-13T06:09:25;31.27;;;18.85;;
55300;SDS011;58302;51.446;-2.000;2023-02-13T06:11:51;37.90;;;20.38;;
55300;SDS011;58302;51.446;-2.000;2023-02-13T06:14:17;36.60;;;18.60;;
55300;SDS011;58302;51.446;-2.000;2023-02-13T06:16:43;35.00;;;20.55;;
55300;SDS011;58302;51.446;-2.000;2023-02-13T06:19:09;31.75;;;18.20;;
55300;SDS011;58302;51.446;-2.000;2023-02-13T06:21:35;36.13;;;20.75;;
55300;SDS011;58302;51.446;-2.000;2023-02-13T06:24:05;38.80;;;22.15;;
55300;SDS011;58302;51.446;-2.000;2023-02-13T06:26:33;36.50;;;21.30;;
55300;SDS011;58302;51.446;-2.000;2023-02-13T06:28:59;31.67;;;19.83;;
55300;SDS011;58302;51.446;-2.000;2023-02-13T06:31:25;38.35;;;20.30;;
55300;SDS011;58302;51.446;-2.000;2023-02-13T06:33:51;35.95;;;21.40;;
55300;SDS011;58302;51.446;-2.000;2023-02-13T06:36:17;37.33;;;20.98;;
55300;SDS011;58302;51.446;-2.000;2023-02-13T06:38:43;33.88;;;19.92;;
55300;SDS011;58302;51.446;-2.000;2023-02-13T06:41:09;35.67;;;18.92;;
55300;SDS011;58302;51.446;-2.000;2023-02-13T06:43:35;39.05;;;21.45;;
55300;SDS011;58302;51.446;-2.000;2023-02-13T06:46:04;40.33;;;21.30;;
55300;SDS011;58302;51.446;-2.000;2023-02-13T06:48:31;35.17;;;20.33;;
55300;SDS011;58302;51.446;-2.000;2023-02-13T06:50:57;37.88;;;20.65;;
55300;SDS011;58302;51.446;-2.000;2023-02-13T06:53:23;37.05;;;21.23;;
55300;SDS011;58302;51.446;-2.000;2023-02-13T06:55:53;38.85;;;20.33;;
55300;SDS011;58302;51.446;-2.000;2023-02-13T06:58:20;38.85;;;20.13;;
55300;SDS011;58302;51.446;-2.000;2023-02-13T07:00:47;35.00;;;19.58;;
55300;SDS011;58302;51.446;-2.000;2023-02-13T07:03:14;32.25;;;18.55;;
55300;SDS011;58302;51.446;-2.000;2023-02-13T07:05:43;37.58;;;19.10;;
55300;SDS011;58302;51.446;-2.000;2023-02-13T07:08:10;37.10;;;19.52;;
55300;SDS011;58302;51.446;-2.000;2023-02-13T07:10:37;36.17;;;17.25;;
55300;SDS011;58302;51.446;-2.000;2023-02-13T07:13:04;32.40;;;17.70;;
55300;SDS011;58302;51.446;-2.000;2023-02-13T07:15:31;32.33;;;17.35;;
55300;SDS011;58302;51.446;-2.000;2023-02-13T07:17:58;32.05;;;19.20;;
55300;SDS011;58302;51.446;-2.000;2023-02-13T07:20:24;35.85;;;18.67;;
55300;SDS011;58302;51.446;-2.000;2023-02-13T07:22:51;31.17;;;16.42;;
55300;SDS011;58302;51.446;-2.000;2023-02-13T07:25:17;29.38;;;16.20;;
55300;SDS011;58302;51.446;-2.000;2023-02-13T07:27:43;30.85;;;16.40;;
55300;SDS011;58302;51.446;-2.000;2023-02-13T07:30:09;32.60;;;17.55;;
55300;SDS011;58302;51.446;-2.000;2023-02-13T07:32:36;30.67;;;16.98;;
55300;SDS011;58302;51.446;-2.000;2023-02-13T07:35:02;30.45;;;17.20;;
55300;SDS011;58302;51.446;-2.000;2023-02-13T07:37:29;26.85;;;15.35;;
55300;SDS011;58302;51.446;-2.000;2023-02-13T07:39:56;32.17;;;15.65;;
55300;SDS011;58302;51.446;-2.000;2023-02-13T07:42:22;26.38;;;15.40;;
55300;SDS011;58302;51.446;-2.000;2023-02-13T07:44:48;25.15;;;15.02;;
55300;SDS011;58302;51.446;-2.000;2023-02-13T07:47:14;26.58;;;16.13;;
55300;SDS011;58302;51.446;-2.000;2023-02-13T07:49:40;30.45;;;16.77;;
55300;SDS011;58302;51.446;-2.000;2023-02-13T07:52:06;25.83;;;13.95;;
55300;SDS011;58302;51.446;-2.000;2023-02-13T07:54:32;23.45;;;13.82;;
55300;SDS011;58302;51.446;-2.000;2023-02-13T07:56:58;32.72;;;15.98;;
55300;SDS011;58302;51.446;-2.000;2023-02-13T07:59:24;31.65;;;15.98;;
55300;SDS011;58302;51.446;-2.000;2023-02-13T08:01:50;28.15;;;14.38;;
55300;SDS011;58302;51.446;-2.000;2023-02-13T08:04:16;29.88;;;15.10;;
55300;SDS011;58302;51.446;-2.000;2023-02-13T08:06:42;28.88;;;15.85;;
55300;SDS011;58302;51.446;-2.000;2023-02-13T08:09:12;29.63;;;16.35;;
55300;SDS011;58302;51.446;-2.000;2023-02-13T08:12:03;21.70;;;11.82;;
55300;SDS011;58302;51.446;-2.000;2023-02-13T08:14:31;24.95;;;14.98;;
55300;SDS011;58302;51.446;-2.000;2023-02-13T08:16:58;26.02;;;12.68;;
55300;SDS011;58302;51.446;-2.000;2023-02-13T08:19:25;30.88;;;16.20;;
55300;SDS011;58302;51.446;-2.000;2023-02-13T08:21:52;31.50;;;15.27;;
55300;SDS011;58302;51.446;-2.000;2023-02-13T08:24:18;31.27;;;17.45;;
55300;SDS011;58302;51.446;-2.000;2023-02-13T08:26:44;25.48;;;12.10;;
55300;SDS011;58302;51.446;-2.000;2023-02-13T08:29:10;27.08;;;14.95;;
55300;SDS011;58302;51.446;-2.000;2023-02-13T08:31:36;26.88;;;15.15;;
55300;SDS011;58302;51.446;-2.000;2023-02-13T08:34:03;28.75;;;16.17;;
55300;SDS011;58302;51.446;-2.000;2023-02-13T08:36:29;42.35;;;17.70;;
55300;SDS011;58302;51.446;-2.000;2023-02-13T08:38:55;34.20;;;16.42;;
55300;SDS011;58302;51.446;-2.000;2023-02-13T08:41:21;28.45;;;16.27;;
55300;SDS011;58302;51.446;-2.000;2023-02-13T08:43:48;32.38;;;16.30;;
55300;SDS011;58302;51.446;-2.000;2023-02-13T08:46:15;29.13;;;15.63;;
55300;SDS011;58302;51.446;-2.000;2023-02-13T08:48:44;27.50;;;15.27;;
55300;SDS011;58302;51.446;-2.000;2023-02-13T08:51:11;23.83;;;13.20;;
55300;SDS011;58302;51.446;-2.000;2023-02-13T08:53:38;30.20;;;15.13;;
55300;SDS011;58302;51.446;-2.000;2023-02-13T08:56:08;29.40;;;14.32;;
55300;SDS011;58302;51.446;-2.000;2023-02-13T08:58:35;33.20;;;17.83;;
55300;SDS011;58302;51.446;-2.000;2023-02-13T09:01:03;30.00;;;14.70;;
55300;SDS011;58302;51.446;-2.000;2023-02-13T09:03:30;27.08;;;13.43;;
55300;SDS011;58302;51.446;-2.000;2023-02-13T09:05:59;26.35;;;15.32;;
55300;SDS011;58302;51.446;-2.000;2023-02-13T09:08:27;27.65;;;15.80;;
55300;SDS011;58302;51.446;-2.000;2023-02-13T09:10:59;26.17;;;13.80;;
55300;SDS011;58302;51.446;-2.000;2023-02-13T09:13:27;28.67;;;15.18;;
55300;SDS011;58302;51.446;-2.000;2023-02-13T09:16:02;24.60;;;13.38;;
55300;SDS011;58302;51.446;-2.000;2023-02-13T09:18:30;28.35;;;15.30;;
55300;SDS011;58302;51.446;-2.000;2023-02-13T09:20:57;31.60;;;12.13;;
55300;SDS011;58302;51.446;-2.000;2023-02-13T09:23:29;31.83;;;16.58;;
55300;SDS011;58302;51.446;-2.000;2023-02-13T09:26:00;26.45;;;15.15;;
55300;SDS011;58302;51.446;-2.000;2023-02-13T09:28:30;34.28;;;17.40;;
55300;SDS011;58302;51.446;-2.000;2023-02-13T09:30:58;31.63;;;17.33;;
55300;SDS011;58302;51.446;-2.000;2023-02-13T09:33:25;27.25;;;14.38;;
55300;SDS011;58302;51.446;-2.000;2023-02-13T09:35:51;35.30;;;18.45;;
55300;SDS011;58302;51.446;-2.000;2023-02-13T09:38:17;28.30;;;15.13;;
55300;SDS011;58302;51.446;-2.000;2023-02-13T09:40:48;25.48;;;13.70;;
55300;SDS011;58302;51.446;-2.000;2023-02-13T09:46:00;25.85;;;15.85;;
55300;SDS011;58302;51.446;-2.000;2023-02-13T09:48:38;28.35;;;15.45;;
55300;SDS011;58302;51.446;-2.000;2023-02-13T09:51:08;31.50;;;18.15;;
55300;SDS011;58302;51.446;-2.000;2023-02-13T09:53:39;15.90;;;9.80;;
55300;SDS011;58302;51.446;-2.000;2023-02-13T09:56:21;23.00;;;12.48;;
55300;SDS011;58302;51.446;-2.000;2023-02-13T09:59:17;28.80;;;14.18;;
55300;SDS011;58302;51.446;-2.000;2023-02-13T10:01:54;28.58;;;15.63;;
55300;SDS011;58302;51.446;-2.000;2023-02-13T10:04:35;27.50;;;14.65;;
55300;SDS011;58302;51.446;-2.000;2023-02-13T10:07:17;29.50;;;11.45;;
55300;SDS011;58302;51.446;-2.000;2023-02-13T10:15:53;30.75;;;15.73;;
55300;SDS011;58302;51.446;-2.000;2023-02-13T10:18:33;28.38;;;17.20;;
55300;SDS011;58302;51.446;-2.000;2023-02-13T10:21:07;33.15;;;16.25;;
55300;SDS011;58302;51.446;-2.000;2023-02-13T10:23:38;27.40;;;14.93;;
55300;SDS011;58302;51.446;-2.000;2023-02-13T10:26:17;29.40;;;17.23;;
55300;SDS011;58302;51.446;-2.000;2023-02-13T10:28:57;30.55;;;16.25;;
55300;SDS011;58302;51.446;-2.000;2023-02-13T10:31:47;23.45;;;12.52;;
55300;SDS011;58302;51.446;-2.000;2023-02-13T10:34:16;30.10;;;16.05;;
55300;SDS011;58302;51.446;-2.000;2023-02-13T10:36:46;23.58;;;14.40;;
55300;SDS011;58302;51.446;-2.000;2023-02-13T10:41:52;25.95;;;14.63;;
55300;SDS011;58302;51.446;-2.000;2023-02-13T10:52:49;32.88;;;17.38;;
55300;SDS011;58302;51.446;-2.000;2023-02-13T10:57:58;30.15;;;14.10;;
55300;SDS011;58302;51.446;-2.000;2023-02-13T11:00:40;20.95;;;12.38;;
55300;SDS011;58302;51.446;-2.000;2023-02-13T11:03:20;27.40;;;16.90;;
55300;SDS011;58302;51.446;-2.000;2023-02-13T11:05:51;29.55;;;16.38;;
55300;SDS011;58302;51.446;-2.000;2023-02-13T11:16:45;26.40;;;14.60;;
55300;SDS011;58302;51.446;-2.000;2023-02-13T11:21:47;29.15;;;16.58;;
55300;SDS011;58302;51.446;-2.000;2023-02-13T11:24:22;25.15;;;14.60;;
55300;SDS011;58302;51.446;-2.000;2023-02-13T11:26:57;27.02;;;14.15;;
55300;SDS011;58302;51.446;-2.000;2023-02-13T11:29:29;16.85;;;10.45;;
55300;SDS011;58302;51.446;-2.000;2023-02-13T11:34:48;26.45;;;15.32;;
55300;SDS011;58302;51.446;-2.000;2023-02-13T11:39:46;28.15;;;15.25;;
55300;SDS011;58302;51.446;-2.000;2023-02-13T11:42:34;31.17;;;18.83;;
55300;SDS011;58302;51.446;-2.000;2023-02-13T11:45:02;25.30;;;13.90;;
55300;SDS011;58302;51.446;-2.000;2023-02-13T11:49:58;30.65;;;17.85;;
55300;SDS011;58302;51.446;-2.000;2023-02-13T11:52:26;18.83;;;11.98;;
55300;SDS011;58302;51.446;-2.000;2023-02-13T11:54:54;23.85;;;14.27;;
55300;SDS011;58302;51.446;-2.000;2023-02-13T11:57:29;21.08;;;12.63;;
55300;SDS011;58302;51.446;-2.000;2023-02-13T11:59:57;22.73;;;14.88;;
55300;SDS011;58302;51.446;-2.000;2023-02-13T12:02:43;28.27;;;17.85;;
55300;SDS011;58302;51.446;-2.000;2023-02-13T12:05:16;26.15;;;14.48;;
55300;SDS011;58302;51.446;-2.000;2023-02-13T12:07:50;22.00;;;13.95;;
55300;SDS011;58302;51.446;-2.000;2023-02-13T12:10:18;24.45;;;15.32;;
55300;SDS011;58302;51.446;-2.000;2023-02-13T12:13:01;20.45;;;12.07;;
55300;SDS011;58302;51.446;-2.000;2023-02-13T12:15:38;24.45;;;16.40;;
55300;SDS011;58302;51.446;-2.000;2023-02-13T12:26:24;20.10;;;12.75;;
55300;SDS011;58302;51.446;-2.000;2023-02-13T12:29:24;26.80;;;17.30;;
55300;SDS011;58302;51.446;-2.000;2023-02-13T12:32:16;21.20;;;14.20;;
55300;SDS011;58302;51.446;-2.000;2023-02-13T12:40:52;24.50;;;15.93;;
55300;SDS011;58302;51.446;-2.000;2023-02-13T13:03:15;20.35;;;14.48;;
55300;SDS011;58302;51.446;-2.000;2023-02-13T13:08:30;21.15;;;13.10;;
55300;SDS011;58302;51.446;-2.000;2023-02-13T13:27:16;24.30;;;16.35;;
55300;SDS011;58302;51.446;-2.000;2023-02-13T13:29:49;22.30;;;16.50;;
55300;SDS011;58302;51.446;-2.000;2023-02-13T13:32:19;23.92;;;16.15;;
55300;SDS011;58302;51.446;-2.000;2023-02-13T13:34:46;18.27;;;13.00;;
55300;SDS011;58302;51.446;-2.000;2023-02-13T13:45:48;18.75;;;13.70;;
55300;SDS011;58302;51.446;-2.000;2023-02-13T13:50:56;23.95;;;15.45;;
55300;SDS011;58302;51.446;-2.000;2023-02-13T13:53:23;20.73;;;13.20;;
55300;SDS011;58302;51.446;-2.000;2023-02-13T14:03:43;19.77;;;13.73;;
55300;SDS011;58302;51.446;-2.000;2023-02-13T14:06:15;21.60;;;15.05;;
55300;SDS011;58302;51.446;-2.000;2023-02-13T14:16:56;23.48;;;15.35;;
55300;SDS011;58302;51.446;-2.000;2023-02-13T14:19:36;20.35;;;13.50;;
55300;SDS011;58302;51.446;-2.000;2023-02-13T14:24:49;20.13;;;14.38;;
55300;SDS011;58302;51.446;-2.000;2023-02-13T14:27:19;23.33;;;15.55;;
55300;SDS011;58302;51.446;-2.000;2023-02-13T14:29:50;18.33;;;13.48;;
55300;SDS011;58302;51.446;-2.000;2023-02-13T14:32:17;20.35;;;15.32;;
55300;SDS011;58302;51.446;-2.000;2023-02-13T14:34:49;21.80;;;14.13;;
55300;SDS011;58302;51.446;-2.000;2023-02-13T14:37:23;23.92;;;15.40;;
55300;SDS011;58302;51.446;-2.000;2023-02-13T14:42:55;27.10;;;15.95;;
55300;SDS011;58302;51.446;-2.000;2023-02-13T14:46:26;24.98;;;15.73;;
55300;SDS011;58302;51.446;-2.000;2023-02-13T14:54:01;26.25;;;13.45;;
55300;SDS011;58302;51.446;-2.000;2023-02-13T14:56:30;23.08;;;16.90;;
55300;SDS011;58302;51.446;-2.000;2023-02-13T14:59:00;24.40;;;15.85;;
55300;SDS011;58302;51.446;-2.000;2023-02-13T15:01:44;28.30;;;15.45;;
55300;SDS011;58302;51.446;-2.000;2023-02-13T15:06:42;19.55;;;12.57;;
55300;SDS011;58302;51.446;-2.000;2023-02-13T15:11:46;20.73;;;13.07;;
55300;SDS011;58302;51.446;-2.000;2023-02-13T15:16:51;19.20;;;12.18;;
55300;SDS011;58302;51.446;-2.000;2023-02-13T15:19:30;25.17;;;15.68;;
55300;SDS011;58302;51.446;-2.000;2023-02-13T15:21:59;22.38;;;13.32;;
55300;SDS011;58302;51.446;-2.000;2023-02-13T15:24:30;31.08;;;18.83;;
55300;SDS011;58302;51.446;-2.000;2023-02-13T15:27:02;23.48;;;13.02;;
55300;SDS011;58302;51.446;-2.000;2023-02-13T15:29:30;20.77;;;12.20;;
55300;SDS011;58302;51.446;-2.000;2023-02-13T15:31:56;17.52;;;10.73;;
55300;SDS011;58302;51.446;-2.000;2023-02-13T15:36:54;25.58;;;16.75;;
55300;SDS011;58302;51.446;-2.000;2023-02-13T15:39:27;17.30;;;11.52;;
55300;SDS011;58302;51.446;-2.000;2023-02-13T15:41:57;22.85;;;14.02;;
55300;SDS011;58302;51.446;-2.000;2023-02-13T15:44:31;20.73;;;13.38;;
55300;SDS011;58302;51.446;-2.000;2023-02-13T15:47:02;19.50;;;12.35;;
55300;SDS011;58302;51.446;-2.000;2023-02-13T15:49:33;18.52;;;11.73;;
55300;SDS011;58302;51.446;-2.000;2023-02-13T15:52:05;22.70;;;12.80;;
55300;SDS011;58302;51.446;-2.000;2023-02-13T15:54:35;21.48;;;12.55;;
55300;SDS011;58302;51.446;-2.000;2023-02-13T15:57:03;20.10;;;12.50;;
55300;SDS011;58302;51.446;-2.000;2023-02-13T15:59:33;19.67;;;12.98;;
55300;SDS011;58302;51.446;-2.000;2023-02-13T16:02:02;18.55;;;12.25;;
55300;SDS011;58302;51.446;-2.000;2023-02-13T16:04:31;18.77;;;12.13;;
55300;SDS011;58302;51.446;-2.000;2023-02-13T16:06:58;23.13;;;14.55;;
55300;SDS011;58302;51.446;-2.000;2023-02-13T16:09:31;18.83;;;12.30;;
55300;SDS011;58302;51.446;-2.000;2023-02-13T16:14:35;18.38;;;11.40;;
55300;SDS011;58302;51.446;-2.000;2023-02-13T16:17:16;21.77;;;13.98;;
55300;SDS011;58302;51.446;-2.000;2023-02-13T16:22:30;19.17;;;10.98;;
55300;SDS011;58302;51.446;-2.000;2023-02-13T16:27:41;20.83;;;12.15;;
55300;SDS011;58302;51.446;-2.000;2023-02-13T16:30:17;22.17;;;12.02;;
55300;SDS011;58302;51.446;-2.000;2023-02-13T16:35:40;19.05;;;11.77;;
55300;SDS011;58302;51.446;-2.000;2023-02-13T16:40:55;19.30;;;12.93;;
55300;SDS011;58302;51.446;-2.000;2023-02-13T16:43:41;19.15;;;10.93;;
55300;SDS011;58302;51.446;-2.000;2023-02-13T16:51:32;22.00;;;14.82;;
55300;SDS011;58302;51.446;-2.000;2023-02-13T16:54:00;22.13;;;14.27;;
55300;SDS011;58302;51.446;-2.000;2023-02-13T16:56:38;26.05;;;15.23;;
55300;SDS011;58302;51.446;-2.000;2023-02-13T17:04:51;20.85;;;13.18;;
55300;SDS011;58302;51.446;-2.000;2023-02-13T17:07:19;27.45;;;15.52;;
55300;SDS011;58302;51.446;-2.000;2023-02-13T17:09:52;26.58;;;13.52;;
55300;SDS011;58302;51.446;-2.000;2023-02-13T17:12:20;24.52;;;14.43;;
55300;SDS011;58302;51.446;-2.000;2023-02-13T17:14:47;23.15;;;14.25;;
55300;SDS011;58302;51.446;-2.000;2023-02-13T17:17:15;25.58;;;15.77;;
55300;SDS011;58302;51.446;-2.000;2023-02-13T17:19:43;23.23;;;15.60;;
55300;SDS011;58302;51.446;-2.000;2023-02-13T17:22:20;26.38;;;15.20;;
55300;SDS011;58302;51.446;-2.000;2023-02-13T17:24:56;27.42;;;15.27;;
55300;SDS011;58302;51.446;-2.000;2023-02-13T17:27:22;26.13;;;15.65;;
55300;SDS011;58302;51.446;-2.000;2023-02-13T17:29:48;26.00;;;15.55;;
55300;SDS011;58302;51.446;-2.000;2023-02-13T17:32:15;31.30;;;16.63;;
55300;SDS011;58302;51.446;-2.000;2023-02-13T17:34:44;30.20;;;16.75;;
55300;SDS011;58302;51.446;-2.000;2023-02-13T17:37:14;23.33;;;14.32;;
55300;SDS011;58302;51.446;-2.000;2023-02-13T17:39:43;27.33;;;15.88;;
55300;SDS011;58302;51.446;-2.000;2023-02-13T17:42:28;29.25;;;16.30;;
55300;SDS011;58302;51.446;-2.000;2023-02-13T17:44:55;23.80;;;14.55;;
55300;SDS011;58302;51.446;-2.000;2023-02-13T17:47:23;27.95;;;16.15;;
55300;SDS011;58302;51.446;-2.000;2023-02-13T17:49:50;25.55;;;15.68;;
55300;SDS011;58302;51.446;-2.000;2023-02-13T17:52:20;25.58;;;16.38;;
55300;SDS011;58302;51.446;-2.000;2023-02-13T17:54:48;31.83;;;17.02;;
55300;SDS011;58302;51.446;-2.000;2023-02-13T17:57:15;30.88;;;16.52;;
55300;SDS011;58302;51.446;-2.000;2023-02-13T17:59:43;32.10;;;17.00;;